createdAt,value
2018-07-09T00:00:52.628Z,16.80
2018-07-09T00:03:27.711Z,16.70
2018-07-09T00:06:03.015Z,16.70
2018-07-09T00:08:37.624Z,16.60
2018-07-09T00:11:12.700Z,16.60
2018-07-09T00:13:47.308Z,16.60
2018-07-09T00:18:57.103Z,16.60
2018-07-09T00:21:32.264Z,16.50
2018-07-09T00:24:06.972Z,16.50
2018-07-09T00:29:16.608Z,16.50
2018-07-09T00:31:51.543Z,16.50
2018-07-09T00:34:26.285Z,16.40
2018-07-09T00:37:01.092Z,16.40
2018-07-09T00:39:35.995Z,16.40
2018-07-09T00:42:11.275Z,16.40
2018-07-09T00:44:45.811Z,16.30
2018-07-09T00:47:20.609Z,16.30
2018-07-09T00:49:55.129Z,16.30
2018-07-09T00:52:30.546Z,16.30
2018-07-09T00:55:05.400Z,16.20
2018-07-09T01:00:14.700Z,16.20
2018-07-09T01:02:49.537Z,16.20
2018-07-09T01:05:24.219Z,16.20
2018-07-09T01:07:59.321Z,16.10
2018-07-09T01:10:49.965Z,16.10
2018-07-09T01:13:40.777Z,16.10
2018-07-09T01:16:15.390Z,16.10
2018-07-09T01:18:50.229Z,16.00
2018-07-09T01:21:26.247Z,16.00
2018-07-09T01:24:01.184Z,16.00
2018-07-09T01:26:36.466Z,16.00
2018-07-09T01:29:11.674Z,15.90
2018-07-09T01:31:46.502Z,15.90
2018-07-09T01:36:55.882Z,15.90
2018-07-09T01:39:30.885Z,15.90
2018-07-09T01:42:05.295Z,15.90
2018-07-09T01:44:40.559Z,15.90
2018-07-09T01:47:14.998Z,15.80
2018-07-09T01:49:49.958Z,15.90
2018-07-09T01:52:24.761Z,15.80
2018-07-09T01:55:00.286Z,15.80
2018-07-09T01:57:34.478Z,15.80
2018-07-09T02:00:09.725Z,15.70
2018-07-09T02:02:44.244Z,15.70
2018-07-09T02:05:19.257Z,15.70
2018-07-09T02:07:54.044Z,15.70
2018-07-09T02:10:28.842Z,15.70
2018-07-09T02:13:03.859Z,15.60
2018-07-09T02:15:37.872Z,15.60
2018-07-09T02:18:12.117Z,15.70
2018-07-09T02:20:47.083Z,15.60
2018-07-09T02:23:22.349Z,15.60
2018-07-09T02:25:57.190Z,15.60
2018-07-09T02:28:32.169Z,15.60
2018-07-09T02:31:07.144Z,15.70
2018-07-09T02:33:42.288Z,15.60
2018-07-09T02:36:17.550Z,15.70
2018-07-09T02:38:52.102Z,15.60
2018-07-09T02:41:27.004Z,15.60
2018-07-09T02:44:01.475Z,15.70
2018-07-09T02:49:11.079Z,15.60
2018-07-09T02:51:45.753Z,15.60
2018-07-09T02:54:20.469Z,15.60
2018-07-09T02:56:55.039Z,15.60
2018-07-09T02:59:30.089Z,15.60
2018-07-09T03:02:04.812Z,15.60
2018-07-09T03:04:39.707Z,15.60
2018-07-09T03:07:14.368Z,15.60
2018-07-09T03:09:49.774Z,15.50
2018-07-09T03:12:24.084Z,15.50
2018-07-09T03:14:59.750Z,15.40
2018-07-09T03:17:34.800Z,15.40
2018-07-09T03:20:09.435Z,15.40
2018-07-09T03:22:44.686Z,15.40
2018-07-09T03:25:19.474Z,15.40
2018-07-09T03:27:54.530Z,15.30
2018-07-09T03:30:29.784Z,15.30
2018-07-09T03:33:04.892Z,15.30
2018-07-09T03:35:39.840Z,15.30
2018-07-09T03:38:14.553Z,15.30
2018-07-09T03:40:49.211Z,15.20
2018-07-09T03:43:24.101Z,15.20
2018-07-09T03:45:58.964Z,15.20
2018-07-09T03:48:34.105Z,15.30
2018-07-09T03:51:09.053Z,15.30
2018-07-09T03:53:43.671Z,15.30
2018-07-09T03:56:18.182Z,15.30
2018-07-09T03:58:52.999Z,15.30
2018-07-09T04:01:28.163Z,15.30
2018-07-09T04:04:02.812Z,15.30
2018-07-09T04:06:37.813Z,15.40
2018-07-09T04:09:12.309Z,15.50
2018-07-09T04:11:47.288Z,15.50
2018-07-09T04:14:22.012Z,15.60
2018-07-09T04:16:56.827Z,15.70
2018-07-09T04:19:31.733Z,15.70
2018-07-09T04:22:06.814Z,15.80
2018-07-09T04:24:41.508Z,15.90
2018-07-09T04:27:16.397Z,16.00
2018-07-09T04:29:51.339Z,16.10
2018-07-09T04:32:25.652Z,16.20
2018-07-09T04:34:59.735Z,16.40
2018-07-09T04:37:34.537Z,16.50
2018-07-09T04:40:09.255Z,16.70
2018-07-09T04:42:44.200Z,16.90
2018-07-09T04:45:19.609Z,17.10
2018-07-09T04:47:54.539Z,17.20
2018-07-09T04:50:29.105Z,17.40
2018-07-09T04:53:04.187Z,17.50
2018-07-09T04:55:39.129Z,17.60
2018-07-09T04:58:13.576Z,17.80
2018-07-09T05:00:48.337Z,17.90
2018-07-09T05:03:22.766Z,18.00
2018-07-09T05:05:57.861Z,18.10
2018-07-09T05:08:32.673Z,18.20
2018-07-09T05:11:07.033Z,18.40
2018-07-09T05:13:42.016Z,18.50
2018-07-09T05:16:16.712Z,18.60
2018-07-09T05:18:51.430Z,18.80
2018-07-09T05:21:26.182Z,19.00
2018-07-09T05:24:01.010Z,19.20
2018-07-09T05:26:35.751Z,19.50
2018-07-09T05:29:10.792Z,19.90
2018-07-09T05:31:45.325Z,20.10
2018-07-09T05:34:20.328Z,20.20
2018-07-09T05:36:55.460Z,20.40
2018-07-09T05:39:30.311Z,20.50
2018-07-09T05:42:05.040Z,20.60
2018-07-09T05:44:39.687Z,20.80
2018-07-09T05:47:14.855Z,20.90
2018-07-09T05:49:50.260Z,21.10
2018-07-09T05:52:25.388Z,21.10
2018-07-09T05:54:59.653Z,21.20
2018-07-09T05:57:34.657Z,21.50
2018-07-09T06:00:09.425Z,21.90
2018-07-09T06:02:44.454Z,22.10
2018-07-09T06:05:19.366Z,22.50
2018-07-09T06:07:54.552Z,22.80
2018-07-09T06:10:28.679Z,23.10
2018-07-09T06:13:03.759Z,23.30
2018-07-09T06:15:38.444Z,23.60
2018-07-09T06:18:13.477Z,23.60
2018-07-09T06:20:48.525Z,23.70
2018-07-09T06:23:23.131Z,23.80
2018-07-09T06:25:57.874Z,23.80
2018-07-09T06:28:32.774Z,23.70
2018-07-09T06:31:07.169Z,23.70
2018-07-09T06:33:42.013Z,23.80
2018-07-09T06:36:16.684Z,23.90
2018-07-09T06:38:51.294Z,24.30
2018-07-09T06:41:26.234Z,24.60
2018-07-09T06:44:01.486Z,25.20
2018-07-09T06:46:35.730Z,25.90
2018-07-09T06:49:10.634Z,26.60
2018-07-09T06:51:45.256Z,27.20
2018-07-09T06:54:20.331Z,27.80
2018-07-09T06:56:54.967Z,28.30
2018-07-09T06:59:30.095Z,28.70
2018-07-09T07:02:05.118Z,29.10
2018-07-09T07:04:40.064Z,29.50
2018-07-09T07:07:15.431Z,29.80
2018-07-09T07:09:51.020Z,30.10
2018-07-09T07:12:25.670Z,30.30
2018-07-09T07:15:00.282Z,30.50
2018-07-09T07:17:35.046Z,30.70
2018-07-09T07:20:10.320Z,30.80
2018-07-09T07:22:45.008Z,30.80
2018-07-09T07:25:19.451Z,30.90
2018-07-09T07:27:54.080Z,31.00
2018-07-09T07:30:28.448Z,31.00
2018-07-09T07:33:03.350Z,31.00
2018-07-09T07:35:38.206Z,31.10
2018-07-09T07:38:12.835Z,31.10
2018-07-09T07:40:47.758Z,31.10
2018-07-09T07:43:22.459Z,31.10
2018-07-09T07:45:57.281Z,31.10
2018-07-09T07:48:32.186Z,31.10
2018-07-09T07:51:06.846Z,31.20
2018-07-09T07:53:41.742Z,31.30
2018-07-09T07:56:16.494Z,31.20
2018-07-09T07:58:51.712Z,31.30
2018-07-09T08:04:00.965Z,31.20
2018-07-09T08:06:35.930Z,31.10
2018-07-09T08:09:10.450Z,31.00
2018-07-09T08:11:49.132Z,31.00
2018-07-09T08:14:20.274Z,31.10
2018-07-09T08:16:55.185Z,31.10
2018-07-09T08:19:30.027Z,31.10
2018-07-09T08:22:05.393Z,31.10
2018-07-09T08:24:40.074Z,31.10
2018-07-09T08:27:15.109Z,31.00
2018-07-09T08:29:49.369Z,31.00
2018-07-09T08:32:23.822Z,30.90
2018-07-09T08:35:04.446Z,30.80
2018-07-09T08:37:39.493Z,30.70
2018-07-09T08:40:14.430Z,30.80
2018-07-09T08:42:49.273Z,30.90
2018-07-09T08:45:24.088Z,31.00
2018-07-09T08:47:58.870Z,31.00
2018-07-09T08:50:34.060Z,31.00
2018-07-09T08:53:09.090Z,30.90
2018-07-09T08:55:43.865Z,30.80
2018-07-09T08:58:18.955Z,30.90
2018-07-09T09:00:53.414Z,30.90
2018-07-09T09:03:28.075Z,30.90
2018-07-09T09:06:02.899Z,30.90
2018-07-09T09:08:37.614Z,31.20
2018-07-09T09:11:12.497Z,31.60
2018-07-09T09:13:47.286Z,31.80
2018-07-09T09:16:22.178Z,32.10
2018-07-09T09:18:57.076Z,32.20
2018-07-09T09:21:32.238Z,32.30
2018-07-09T09:24:07.493Z,32.40
2018-07-09T09:26:42.197Z,32.40
2018-07-09T09:29:17.905Z,32.30
2018-07-09T09:31:52.187Z,32.10
2018-07-09T09:34:26.979Z,32.00
2018-07-09T09:37:01.925Z,31.70
2018-07-09T09:39:36.611Z,31.50
2018-07-09T09:42:11.290Z,31.40
2018-07-09T09:44:46.302Z,31.40
2018-07-09T09:47:21.526Z,31.40
2018-07-09T09:49:56.402Z,31.30
2018-07-09T09:52:31.341Z,31.30
2018-07-09T09:55:06.910Z,31.30
2018-07-09T09:57:41.393Z,31.20
2018-07-09T10:00:16.591Z,31.30
2018-07-09T10:02:51.290Z,31.30
2018-07-09T10:05:26.054Z,31.50
2018-07-09T10:08:00.862Z,31.80
2018-07-09T10:10:35.718Z,31.80
2018-07-09T10:13:10.152Z,31.70
2018-07-09T10:15:44.978Z,31.60
2018-07-09T10:18:20.879Z,31.40
2018-07-09T10:20:56.296Z,31.30
2018-07-09T10:23:30.901Z,30.90
2018-07-09T10:26:05.886Z,30.50
2018-07-09T10:28:40.846Z,30.20
2018-07-09T10:31:15.798Z,29.40
2018-07-09T10:33:50.484Z,28.80
2018-07-09T10:36:25.146Z,28.30
2018-07-09T10:38:59.707Z,28.10
2018-07-09T10:41:34.586Z,28.30
2018-07-09T10:44:11.897Z,28.40
2018-07-09T10:46:46.459Z,28.50
2018-07-09T10:49:21.393Z,28.60
2018-07-09T10:51:55.578Z,28.60
2018-07-09T10:54:30.762Z,28.80
2018-07-09T10:57:05.477Z,29.00
2018-07-09T10:59:40.293Z,29.00
2018-07-09T11:02:14.916Z,29.20
2018-07-09T11:04:50.086Z,29.20
2018-07-09T11:07:25.005Z,29.30
2018-07-09T11:09:59.940Z,29.20
2018-07-09T11:12:34.822Z,29.10
2018-07-09T11:15:09.390Z,28.90
2018-07-09T11:17:44.329Z,28.60
2018-07-09T11:20:19.281Z,28.40
2018-07-09T11:22:54.360Z,28.10
2018-07-09T11:25:28.836Z,27.80
2018-07-09T11:28:03.724Z,27.60
2018-07-09T11:30:38.710Z,27.50
2018-07-09T11:33:13.596Z,27.40
2018-07-09T11:35:48.601Z,27.40
2018-07-09T11:38:23.472Z,27.30
2018-07-09T11:40:58.541Z,27.20
2018-07-09T11:43:33.105Z,27.00
2018-07-09T11:46:08.601Z,26.80
2018-07-09T11:48:43.734Z,26.60
2018-07-09T11:51:18.007Z,26.60
2018-07-09T11:53:53.046Z,26.50
2018-07-09T11:56:28.359Z,26.50
2018-07-09T11:59:03.223Z,26.40
2018-07-09T12:01:38.733Z,26.40
2018-07-09T12:04:13.430Z,26.40
2018-07-09T12:06:47.599Z,26.40
2018-07-09T12:09:22.325Z,26.30
2018-07-09T12:11:57.445Z,26.20
2018-07-09T12:17:06.816Z,26.20
2018-07-09T12:19:41.640Z,26.20
2018-07-09T12:22:16.348Z,26.10
2018-07-09T12:24:50.667Z,26.10
2018-07-09T12:27:25.876Z,26.10
2018-07-09T12:30:00.569Z,26.10
2018-07-09T12:32:35.402Z,26.20
2018-07-09T12:35:10.236Z,26.20
2018-07-09T12:37:45.242Z,26.20
2018-07-09T12:40:20.051Z,26.10
2018-07-09T12:42:55.077Z,26.10
2018-07-09T12:45:29.716Z,26.00
2018-07-09T12:48:05.117Z,26.00
2018-07-09T12:50:39.803Z,26.00
2018-07-09T12:53:14.538Z,26.10
2018-07-09T12:55:49.305Z,26.00
2018-07-09T13:00:58.530Z,26.00
2018-07-09T13:03:33.672Z,26.00
2018-07-09T13:06:08.667Z,26.10
2018-07-09T13:08:43.389Z,26.10
2018-07-09T13:11:18.096Z,26.20
2018-07-09T13:13:52.689Z,26.20
2018-07-09T13:16:27.256Z,26.20
2018-07-09T13:19:01.930Z,26.20
2018-07-09T13:21:36.426Z,26.30
2018-07-09T13:24:11.223Z,26.30
2018-07-09T13:26:46.138Z,26.30
2018-07-09T13:29:21.547Z,26.30
2018-07-09T13:31:55.954Z,26.30
2018-07-09T13:34:31.143Z,26.30
2018-07-09T13:37:05.772Z,26.40
2018-07-09T13:39:40.345Z,26.40
2018-07-09T13:42:15.151Z,26.40
2018-07-09T13:44:50.651Z,26.40
2018-07-09T13:47:25.224Z,26.40
2018-07-09T13:50:00.639Z,26.50
2018-07-09T13:52:35.863Z,26.40
2018-07-09T13:55:10.913Z,26.40
2018-07-09T13:57:45.755Z,26.40
2018-07-09T14:00:20.770Z,26.40
2018-07-09T14:02:55.686Z,26.40
2018-07-09T14:05:30.882Z,26.40
2018-07-09T14:08:05.853Z,26.50
2018-07-09T14:10:40.760Z,26.30
2018-07-09T14:13:15.565Z,26.20
2018-07-09T14:15:50.061Z,26.10
2018-07-09T14:18:24.992Z,26.00
2018-07-09T14:20:59.938Z,25.90
2018-07-09T14:23:34.775Z,25.80
2018-07-09T14:26:09.877Z,25.80
2018-07-09T14:28:44.593Z,25.70
2018-07-09T14:31:26.197Z,25.70
2018-07-09T14:34:00.388Z,25.60
2018-07-09T14:36:35.453Z,25.60
2018-07-09T14:39:10.399Z,25.50
2018-07-09T14:41:45.324Z,25.40
2018-07-09T14:44:20.266Z,25.40
2018-07-09T14:46:55.274Z,25.40
2018-07-09T14:49:29.701Z,25.50
2018-07-09T14:52:05.429Z,25.50
2018-07-09T14:54:40.062Z,25.50
2018-07-09T14:57:15.117Z,25.50
2018-07-09T14:59:49.671Z,25.50
2018-07-09T15:02:24.624Z,25.50
2018-07-09T15:04:59.360Z,25.50
2018-07-09T15:07:34.565Z,25.50
2018-07-09T15:10:09.164Z,25.50
2018-07-09T15:12:44.482Z,25.50
2018-07-09T15:15:19.269Z,25.50
2018-07-09T15:17:54.500Z,25.50
2018-07-09T15:20:29.558Z,25.50
2018-07-09T15:23:04.810Z,25.50
2018-07-09T15:25:39.819Z,25.50
2018-07-09T15:28:14.741Z,25.50
2018-07-09T15:30:50.021Z,25.60
2018-07-09T15:33:24.782Z,25.60
2018-07-09T15:35:59.711Z,25.70
2018-07-09T15:38:34.899Z,25.80
2018-07-09T15:41:09.853Z,25.80
2018-07-09T15:43:59.734Z,25.80
2018-07-09T15:46:33.965Z,25.90
2018-07-09T15:49:09.105Z,26.00
2018-07-09T15:51:43.512Z,25.90
2018-07-09T15:54:18.409Z,25.90
2018-07-09T15:56:53.202Z,26.00
2018-07-09T15:59:28.089Z,26.00
2018-07-09T16:02:02.823Z,26.00
2018-07-09T16:04:37.606Z,26.00
2018-07-09T16:07:12.593Z,26.00
2018-07-09T16:09:47.330Z,26.00
2018-07-09T16:12:22.451Z,26.10
2018-07-09T16:14:57.215Z,26.20
2018-07-09T16:17:32.106Z,26.20
2018-07-09T16:20:07.201Z,26.20
2018-07-09T16:22:41.895Z,26.10
2018-07-09T16:25:17.110Z,26.10
2018-07-09T16:27:51.790Z,26.10
2018-07-09T16:30:27.226Z,26.20
2018-07-09T16:33:01.606Z,26.20
2018-07-09T16:35:36.647Z,26.30
2018-07-09T16:38:11.650Z,26.30
2018-07-09T16:40:46.779Z,26.30
2018-07-09T16:43:22.092Z,26.40
2018-07-09T16:45:56.933Z,26.30
2018-07-09T16:48:31.492Z,26.30
2018-07-09T16:51:06.287Z,26.30
2018-07-09T16:53:41.058Z,26.30
2018-07-09T16:56:16.422Z,26.30
2018-07-09T16:58:51.017Z,26.20
2018-07-09T17:01:27.003Z,26.20
2018-07-09T17:04:01.677Z,26.20
2018-07-09T17:06:36.434Z,26.20
2018-07-09T17:09:11.089Z,26.10
2018-07-09T17:11:46.079Z,26.10
2018-07-09T17:14:20.876Z,26.00
2018-07-09T17:16:56.448Z,26.00
2018-07-09T17:19:31.440Z,25.90
2018-07-09T17:24:41.268Z,25.90
2018-07-09T17:27:15.794Z,25.90
2018-07-09T17:29:50.428Z,25.90
2018-07-09T17:32:25.301Z,25.90
2018-07-09T17:34:59.971Z,25.80
2018-07-09T17:37:34.684Z,25.80
2018-07-09T17:40:10.458Z,25.80
2018-07-09T17:42:45.332Z,25.70
2018-07-09T17:45:20.943Z,25.60
2018-07-09T17:47:56.272Z,25.50
2018-07-09T17:50:31.391Z,25.40
2018-07-09T17:53:06.365Z,25.30
2018-07-09T17:55:40.937Z,25.20
2018-07-09T17:58:15.646Z,25.00
2018-07-09T18:00:50.656Z,24.90
2018-07-09T18:03:25.370Z,24.90
2018-07-09T18:06:00.069Z,24.80
2018-07-09T18:08:35.042Z,24.70
2018-07-09T18:11:09.757Z,24.70
2018-07-09T18:13:44.744Z,24.70
2018-07-09T18:16:19.609Z,24.70
2018-07-09T18:18:54.288Z,24.70
2018-07-09T18:21:29.057Z,24.70
2018-07-09T18:24:03.908Z,24.70
2018-07-09T18:29:13.195Z,24.70
2018-07-09T18:31:47.857Z,24.60
2018-07-09T18:34:22.508Z,24.60
2018-07-09T18:36:57.080Z,24.60
2018-07-09T18:39:32.225Z,24.60
2018-07-09T18:42:07.064Z,24.50
2018-07-09T18:44:41.490Z,24.50
2018-07-09T18:47:16.144Z,24.40
2018-07-09T18:49:57.011Z,24.30
2018-07-09T18:52:31.210Z,24.30
2018-07-09T18:55:05.733Z,24.30
2018-07-09T18:57:40.631Z,24.20
2018-07-09T19:00:15.697Z,24.10
2018-07-09T19:02:50.584Z,24.00
2018-07-09T19:08:26.007Z,23.80
2018-07-09T19:11:00.598Z,23.70
2018-07-09T19:13:36.115Z,23.60
2018-07-09T19:16:12.892Z,23.50
2018-07-09T19:19:05.393Z,23.40
2018-07-09T19:21:58.002Z,23.30
2018-07-09T19:24:31.770Z,23.20
2018-07-09T19:27:05.280Z,23.10
2018-07-09T19:29:38.013Z,23.00
2018-07-09T19:32:10.936Z,23.00
2018-07-09T19:34:46.602Z,23.00
2018-07-09T19:37:19.268Z,22.90
2018-07-09T19:39:51.925Z,22.90
2018-07-09T19:42:25.437Z,22.80
2018-07-09T19:44:59.267Z,22.70
2018-07-09T19:47:32.596Z,22.60
2018-07-09T19:50:06.563Z,22.60
2018-07-09T19:52:40.349Z,22.50
2018-07-09T19:55:13.300Z,22.50
2018-07-09T19:57:46.781Z,22.40
2018-07-09T20:00:19.518Z,22.40
2018-07-09T20:02:52.825Z,22.30
2018-07-09T20:05:26.192Z,22.20
2018-07-09T20:07:59.356Z,22.20
2018-07-09T20:10:38.226Z,22.10
2018-07-09T20:13:17.519Z,22.00
2018-07-09T20:15:56.005Z,22.00
2018-07-09T20:18:29.035Z,21.90
2018-07-09T20:21:02.039Z,21.90
2018-07-09T20:23:35.273Z,21.80
2018-07-09T20:26:08.696Z,21.80
2018-07-09T20:28:41.601Z,21.80
2018-07-09T20:31:14.800Z,21.70
2018-07-09T20:33:48.521Z,21.70
2018-07-09T20:36:22.142Z,21.60
2018-07-09T20:38:56.469Z,21.60
2018-07-09T20:41:29.676Z,21.50
2018-07-09T20:44:03.270Z,21.50
2018-07-09T20:46:36.567Z,21.50
2018-07-09T20:49:10.141Z,21.50
2018-07-09T20:51:42.724Z,21.40
2018-07-09T20:54:15.308Z,21.40
2018-07-09T20:56:49.126Z,21.40
2018-07-09T20:59:22.735Z,21.30
2018-07-09T21:01:56.129Z,21.30
2018-07-09T21:04:29.842Z,21.30
2018-07-09T21:07:03.791Z,21.30
2018-07-09T21:09:36.901Z,21.30
2018-07-09T21:12:09.788Z,21.20
2018-07-09T21:14:43.206Z,21.20
2018-07-09T21:17:16.287Z,21.20
2018-07-09T21:19:49.744Z,21.20
2018-07-09T21:22:22.804Z,21.20
2018-07-09T21:24:55.350Z,21.20
2018-07-09T21:27:28.133Z,21.20
2018-07-09T21:30:01.599Z,21.20
2018-07-09T21:32:34.464Z,21.20
2018-07-09T21:35:07.253Z,21.20
2018-07-09T21:37:40.255Z,21.20
2018-07-09T21:40:13.670Z,21.20
2018-07-09T21:42:46.681Z,21.10
2018-07-09T21:45:19.448Z,21.20
2018-07-09T21:47:59.219Z,21.10
2018-07-09T21:50:25.798Z,21.20
2018-07-09T21:53:05.297Z,21.20
2018-07-09T21:55:38.140Z,21.20
2018-07-09T21:58:11.693Z,21.20
2018-07-09T22:00:44.355Z,21.20
2018-07-09T22:03:18.151Z,21.20
2018-07-09T22:05:51.770Z,21.20
2018-07-09T22:08:24.541Z,21.20
2018-07-09T22:10:57.128Z,21.10
2018-07-09T22:13:29.897Z,21.10
2018-07-09T22:16:03.367Z,21.10
2018-07-09T22:18:36.179Z,21.10
2018-07-09T22:21:09.471Z,21.00
2018-07-09T22:23:42.152Z,21.00
2018-07-09T22:26:14.757Z,20.90
2018-07-09T22:28:47.548Z,20.80
2018-07-09T22:31:21.955Z,20.80
2018-07-09T22:33:56.992Z,20.70
2018-07-09T22:36:31.559Z,20.60
2018-07-09T22:39:06.252Z,20.50
2018-07-09T22:41:41.247Z,20.50
2018-07-09T22:44:18.947Z,20.40
2018-07-09T22:46:53.598Z,20.40
2018-07-09T22:49:28.573Z,20.30
2018-07-09T22:52:03.584Z,20.30
2018-07-09T22:54:38.689Z,20.20
2018-07-09T22:57:13.971Z,20.20
2018-07-09T22:59:48.774Z,20.10
2018-07-09T23:02:23.735Z,20.10
2018-07-09T23:04:58.596Z,20.00
2018-07-09T23:07:37.495Z,19.90
2018-07-09T23:10:30.310Z,19.90
2018-07-09T23:17:04.063Z,19.80
2018-07-09T23:22:02.211Z,19.80
2018-07-09T23:24:35.275Z,19.70
2018-07-09T23:27:08.737Z,19.60
2018-07-09T23:29:42.447Z,19.50
2018-07-09T23:32:15.840Z,19.50
2018-07-09T23:34:49.346Z,19.40
2018-07-09T23:37:21.901Z,19.30
2018-07-09T23:39:55.613Z,19.30
2018-07-09T23:42:28.892Z,19.20
2018-07-09T23:45:01.528Z,19.20
2018-07-09T23:50:08.691Z,19.10
2018-07-09T23:52:41.983Z,19.00
2018-07-09T23:55:15.693Z,19.00
